sensor_id;sensor_type;location;lat;lon;timestamp;temperature;humidity
4187;DHT22;2107;52.306;10.484;2023-11-21T00:00:23;7.70;99.90
4187;DHT22;2107;52.306;10.484;2023-11-21T00:02:51;7.60;99.90
4187;DHT22;2107;52.306;10.484;2023-11-21T00:05:18;7.60;99.90
4187;DHT22;2107;52.306;10.484;2023-11-21T00:07:46;7.60;99.90
4187;DHT22;2107;52.306;10.484;2023-11-21T00:10:13;7.50;99.90
4187;DHT22;2107;52.306;10.484;2023-11-21T00:12:41;7.60;99.90
4187;DHT22;2107;52.306;10.484;2023-11-21T00:15:09;7.60;99.90
4187;DHT22;2107;52.306;10.484;2023-11-21T00:17:37;7.50;99.90
4187;DHT22;2107;52.306;10.484;2023-11-21T00:20:05;7.50;99.90
4187;DHT22;2107;52.306;10.484;2023-11-21T00:22:33;7.50;99.90
4187;DHT22;2107;52.306;10.484;2023-11-21T00:25:01;7.60;99.90
4187;DHT22;2107;52.306;10.484;2023-11-21T00:27:29;7.60;99.90
4187;DHT22;2107;52.306;10.484;2023-11-21T00:29:56;7.50;99.90
4187;DHT22;2107;52.306;10.484;2023-11-21T00:32:23;7.50;99.90
4187;DHT22;2107;52.306;10.484;2023-11-21T00:34:49;7.50;99.90
4187;DHT22;2107;52.306;10.484;2023-11-21T00:37:16;7.50;99.90
4187;DHT22;2107;52.306;10.484;2023-11-21T00:39:43;7.50;99.90
4187;DHT22;2107;52.306;10.484;2023-11-21T00:42:11;7.50;99.90
4187;DHT22;2107;52.306;10.484;2023-11-21T00:44:38;7.50;99.90
4187;DHT22;2107;52.306;10.484;2023-11-21T00:47:05;7.40;99.90
4187;DHT22;2107;52.306;10.484;2023-11-21T00:49:33;7.50;99.90
4187;DHT22;2107;52.306;10.484;2023-11-21T00:52:00;7.50;99.90
4187;DHT22;2107;52.306;10.484;2023-11-21T00:54:28;7.40;99.90
4187;DHT22;2107;52.306;10.484;2023-11-21T00:56:55;7.40;99.90
4187;DHT22;2107;52.306;10.484;2023-11-21T00:59:23;7.40;99.90
4187;DHT22;2107;52.306;10.484;2023-11-21T01:01:50;7.40;99.90
4187;DHT22;2107;52.306;10.484;2023-11-21T01:04:17;7.40;99.90
4187;DHT22;2107;52.306;10.484;2023-11-21T01:06:44;7.40;99.90
4187;DHT22;2107;52.306;10.484;2023-11-21T01:09:10;7.40;99.90
4187;DHT22;2107;52.306;10.484;2023-11-21T01:11:38;7.40;99.90
4187;DHT22;2107;52.306;10.484;2023-11-21T01:14:05;7.40;99.90
4187;DHT22;2107;52.306;10.484;2023-11-21T01:16:35;7.30;99.90
4187;DHT22;2107;52.306;10.484;2023-11-21T01:19:02;7.30;99.90
4187;DHT22;2107;52.306;10.484;2023-11-21T01:21:30;7.30;99.90
4187;DHT22;2107;52.306;10.484;2023-11-21T01:23:57;7.30;99.90
4187;DHT22;2107;52.306;10.484;2023-11-21T01:26:24;7.30;99.90
4187;DHT22;2107;52.306;10.484;2023-11-21T01:28:50;7.20;99.90
4187;DHT22;2107;52.306;10.484;2023-11-21T01:31:17;7.20;99.90
4187;DHT22;2107;52.306;10.484;2023-11-21T01:33:47;7.20;99.90
4187;DHT22;2107;52.306;10.484;2023-11-21T01:36:14;7.30;99.90
4187;DHT22;2107;52.306;10.484;2023-11-21T01:38:41;7.30;99.90
4187;DHT22;2107;52.306;10.484;2023-11-21T01:41:07;7.30;99.90
4187;DHT22;2107;52.306;10.484;2023-11-21T01:43:36;7.30;99.90
4187;DHT22;2107;52.306;10.484;2023-11-21T01:46:04;7.30;99.90
4187;DHT22;2107;52.306;10.484;2023-11-21T01:48:32;7.30;99.90
4187;DHT22;2107;52.306;10.484;2023-11-21T01:51:00;7.30;99.90
4187;DHT22;2107;52.306;10.484;2023-11-21T01:53:28;7.40;99.90
4187;DHT22;2107;52.306;10.484;2023-11-21T01:55:55;7.40;99.90
4187;DHT22;2107;52.306;10.484;2023-11-21T01:58:23;7.40;99.90
4187;DHT22;2107;52.306;10.484;2023-11-21T02:00:50;7.40;99.90
4187;DHT22;2107;52.306;10.484;2023-11-21T02:03:20;7.40;99.90
4187;DHT22;2107;52.306;10.484;2023-11-21T02:05:47;7.40;99.90
4187;DHT22;2107;52.306;10.484;2023-11-21T02:08:15;7.40;99.90
4187;DHT22;2107;52.306;10.484;2023-11-21T02:10:42;7.40;99.90
4187;DHT22;2107;52.306;10.484;2023-11-21T02:13:09;7.50;99.90
4187;DHT22;2107;52.306;10.484;2023-11-21T02:15:36;7.50;99.90
4187;DHT22;2107;52.306;10.484;2023-11-21T02:18:04;7.50;99.90
4187;DHT22;2107;52.306;10.484;2023-11-21T02:20:32;7.50;99.90
4187;DHT22;2107;52.306;10.484;2023-11-21T02:23:01;7.40;99.90
4187;DHT22;2107;52.306;10.484;2023-11-21T02:25:29;7.50;99.90
4187;DHT22;2107;52.306;10.484;2023-11-21T02:27:58;7.50;99.90
4187;DHT22;2107;52.306;10.484;2023-11-21T02:30:25;7.40;99.90
4187;DHT22;2107;52.306;10.484;2023-11-21T02:32:53;7.40;99.90
4187;DHT22;2107;52.306;10.484;2023-11-21T02:35:21;7.50;99.90
4187;DHT22;2107;52.306;10.484;2023-11-21T02:37:49;7.50;99.90
4187;DHT22;2107;52.306;10.484;2023-11-21T02:40:17;7.50;99.90
4187;DHT22;2107;52.306;10.484;2023-11-21T02:42:46;7.60;99.90
4187;DHT22;2107;52.306;10.484;2023-11-21T02:45:14;7.60;99.90
4187;DHT22;2107;52.306;10.484;2023-11-21T02:47:42;7.60;99.90
4187;DHT22;2107;52.306;10.484;2023-11-21T02:50:09;7.60;99.90
4187;DHT22;2107;52.306;10.484;2023-11-21T02:52:36;7.50;99.90
4187;DHT22;2107;52.306;10.484;2023-11-21T02:55:04;7.60;99.90
4187;DHT22;2107;52.306;10.484;2023-11-21T02:57:34;7.50;99.90
4187;DHT22;2107;52.306;10.484;2023-11-21T03:00:01;7.60;99.90
4187;DHT22;2107;52.306;10.484;2023-11-21T03:02:28;7.60;99.90
4187;DHT22;2107;52.306;10.484;2023-11-21T03:04:54;7.60;99.90
4187;DHT22;2107;52.306;10.484;2023-11-21T03:07:21;7.70;99.90
4187;DHT22;2107;52.306;10.484;2023-11-21T03:09:48;7.70;99.90
4187;DHT22;2107;52.306;10.484;2023-11-21T03:12:15;7.60;99.90
4187;DHT22;2107;52.306;10.484;2023-11-21T03:14:43;7.70;99.90
4187;DHT22;2107;52.306;10.484;2023-11-21T03:17:10;7.70;99.90
4187;DHT22;2107;52.306;10.484;2023-11-21T03:19:37;7.70;99.90
4187;DHT22;2107;52.306;10.484;2023-11-21T03:22:04;7.70;99.90
4187;DHT22;2107;52.306;10.484;2023-11-21T03:24:31;7.80;99.90
4187;DHT22;2107;52.306;10.484;2023-11-21T03:26:58;7.70;99.90
4187;DHT22;2107;52.306;10.484;2023-11-21T03:29:25;7.80;99.90
4187;DHT22;2107;52.306;10.484;2023-11-21T03:31:53;7.90;99.90
4187;DHT22;2107;52.306;10.484;2023-11-21T03:34:24;7.80;99.90
4187;DHT22;2107;52.306;10.484;2023-11-21T03:36:51;7.90;99.90
4187;DHT22;2107;52.306;10.484;2023-11-21T03:39:19;7.90;99.90
4187;DHT22;2107;52.306;10.484;2023-11-21T03:41:46;7.90;99.90
4187;DHT22;2107;52.306;10.484;2023-11-21T03:44:13;7.90;99.90
4187;DHT22;2107;52.306;10.484;2023-11-21T03:46:40;8.00;99.90
4187;DHT22;2107;52.306;10.484;2023-11-21T03:49:08;7.90;99.90
4187;DHT22;2107;52.306;10.484;2023-11-21T03:51:36;7.90;99.90
4187;DHT22;2107;52.306;10.484;2023-11-21T03:54:02;7.90;99.90
4187;DHT22;2107;52.306;10.484;2023-11-21T03:56:30;7.90;99.90
4187;DHT22;2107;52.306;10.484;2023-11-21T03:58:56;8.00;99.90
4187;DHT22;2107;52.306;10.484;2023-11-21T04:01:24;7.90;99.90
4187;DHT22;2107;52.306;10.484;2023-11-21T04:03:51;7.90;99.90
4187;DHT22;2107;52.306;10.484;2023-11-21T04:06:19;8.00;99.90
4187;DHT22;2107;52.306;10.484;2023-11-21T04:08:46;7.90;99.90
4187;DHT22;2107;52.306;10.484;2023-11-21T04:11:13;8.00;99.90
4187;DHT22;2107;52.306;10.484;2023-11-21T04:13:41;7.90;99.90
4187;DHT22;2107;52.306;10.484;2023-11-21T04:16:09;8.00;99.90
4187;DHT22;2107;52.306;10.484;2023-11-21T04:18:36;8.00;99.90
4187;DHT22;2107;52.306;10.484;2023-11-21T04:21:04;8.00;99.90
4187;DHT22;2107;52.306;10.484;2023-11-21T04:23:32;7.90;99.90
4187;DHT22;2107;52.306;10.484;2023-11-21T04:25:59;7.90;99.90
4187;DHT22;2107;52.306;10.484;2023-11-21T04:28:28;7.90;99.90
4187;DHT22;2107;52.306;10.484;2023-11-21T04:30:56;7.90;99.90
4187;DHT22;2107;52.306;10.484;2023-11-21T04:33:23;8.00;99.90
4187;DHT22;2107;52.306;10.484;2023-11-21T04:35:51;8.00;99.90
4187;DHT22;2107;52.306;10.484;2023-11-21T04:38:18;8.00;99.90
4187;DHT22;2107;52.306;10.484;2023-11-21T04:40:46;8.10;99.90
4187;DHT22;2107;52.306;10.484;2023-11-21T04:43:13;8.10;99.90
4187;DHT22;2107;52.306;10.484;2023-11-21T04:45:39;8.10;99.90
4187;DHT22;2107;52.306;10.484;2023-11-21T04:48:07;8.20;99.90
4187;DHT22;2107;52.306;10.484;2023-11-21T04:50:34;8.10;99.90
4187;DHT22;2107;52.306;10.484;2023-11-21T04:53:01;8.00;99.90
4187;DHT22;2107;52.306;10.484;2023-11-21T04:55:28;8.10;99.90
4187;DHT22;2107;52.306;10.484;2023-11-21T04:57:56;8.20;99.90
4187;DHT22;2107;52.306;10.484;2023-11-21T05:00:23;8.20;99.90
4187;DHT22;2107;52.306;10.484;2023-11-21T05:02:50;8.20;99.90
4187;DHT22;2107;52.306;10.484;2023-11-21T05:05:17;8.20;99.90
4187;DHT22;2107;52.306;10.484;2023-11-21T05:07:44;8.10;99.90
4187;DHT22;2107;52.306;10.484;2023-11-21T05:10:11;8.10;99.90
4187;DHT22;2107;52.306;10.484;2023-11-21T05:12:40;8.10;99.90
4187;DHT22;2107;52.306;10.484;2023-11-21T05:15:10;8.10;99.90
4187;DHT22;2107;52.306;10.484;2023-11-21T05:17:39;8.10;99.90
4187;DHT22;2107;52.306;10.484;2023-11-21T05:20:08;8.10;99.90
4187;DHT22;2107;52.306;10.484;2023-11-21T05:22:36;8.10;99.90
4187;DHT22;2107;52.306;10.484;2023-11-21T05:25:03;8.20;99.90
4187;DHT22;2107;52.306;10.484;2023-11-21T05:27:30;8.20;99.90
4187;DHT22;2107;52.306;10.484;2023-11-21T05:29:57;8.20;99.90
4187;DHT22;2107;52.306;10.484;2023-11-21T05:32:25;8.20;99.90
4187;DHT22;2107;52.306;10.484;2023-11-21T05:34:53;8.10;99.90
4187;DHT22;2107;52.306;10.484;2023-11-21T05:37:20;8.00;99.90
4187;DHT22;2107;52.306;10.484;2023-11-21T05:39:47;8.00;99.90
4187;DHT22;2107;52.306;10.484;2023-11-21T05:42:13;7.90;99.90
4187;DHT22;2107;52.306;10.484;2023-11-21T05:44:42;8.00;99.90
4187;DHT22;2107;52.306;10.484;2023-11-21T05:47:09;8.00;99.90
4187;DHT22;2107;52.306;10.484;2023-11-21T05:49:37;8.00;99.90
4187;DHT22;2107;52.306;10.484;2023-11-21T05:52:04;8.00;99.90
4187;DHT22;2107;52.306;10.484;2023-11-21T05:54:32;8.10;99.90
4187;DHT22;2107;52.306;10.484;2023-11-21T05:56:59;8.10;99.90
4187;DHT22;2107;52.306;10.484;2023-11-21T05:59:26;8.10;99.90
4187;DHT22;2107;52.306;10.484;2023-11-21T06:01:53;8.10;99.90
4187;DHT22;2107;52.306;10.484;2023-11-21T06:04:20;8.00;99.90
4187;DHT22;2107;52.306;10.484;2023-11-21T06:06:52;7.80;99.90
4187;DHT22;2107;52.306;10.484;2023-11-21T06:09:19;7.70;99.90
4187;DHT22;2107;52.306;10.484;2023-11-21T06:11:47;7.60;99.90
4187;DHT22;2107;52.306;10.484;2023-11-21T06:14:14;7.40;99.90
4187;DHT22;2107;52.306;10.484;2023-11-21T06:16:43;7.30;99.90
4187;DHT22;2107;52.306;10.484;2023-11-21T06:19:10;7.30;99.90
4187;DHT22;2107;52.306;10.484;2023-11-21T06:21:37;7.20;99.90
4187;DHT22;2107;52.306;10.484;2023-11-21T06:24:06;7.20;99.90
4187;DHT22;2107;52.306;10.484;2023-11-21T06:26:33;6.80;99.90
4187;DHT22;2107;52.306;10.484;2023-11-21T06:29:00;6.70;99.90
4187;DHT22;2107;52.306;10.484;2023-11-21T06:31:28;6.60;99.90
4187;DHT22;2107;52.306;10.484;2023-11-21T06:33:55;6.70;99.90
4187;DHT22;2107;52.306;10.484;2023-11-21T06:36:23;6.60;99.90
4187;DHT22;2107;52.306;10.484;2023-11-21T06:38:50;6.60;99.90
4187;DHT22;2107;52.306;10.484;2023-11-21T06:41:18;6.60;99.90
4187;DHT22;2107;52.306;10.484;2023-11-21T06:43:45;6.60;99.90
4187;DHT22;2107;52.306;10.484;2023-11-21T06:46:12;6.50;99.90
4187;DHT22;2107;52.306;10.484;2023-11-21T06:48:41;6.60;99.90
4187;DHT22;2107;52.306;10.484;2023-11-21T06:51:08;6.50;99.90
4187;DHT22;2107;52.306;10.484;2023-11-21T06:53:37;6.50;99.90
4187;DHT22;2107;52.306;10.484;2023-11-21T06:56:05;6.60;99.90
4187;DHT22;2107;52.306;10.484;2023-11-21T06:58:34;6.50;99.90
4187;DHT22;2107;52.306;10.484;2023-11-21T07:01:00;6.50;99.90
4187;DHT22;2107;52.306;10.484;2023-11-21T07:03:27;6.40;99.90
4187;DHT22;2107;52.306;10.484;2023-11-21T07:05:54;6.40;99.90
4187;DHT22;2107;52.306;10.484;2023-11-21T09:11:15;6.70;99.90
4187;DHT22;2107;52.306;10.484;2023-11-21T09:13:41;6.70;99.90
4187;DHT22;2107;52.306;10.484;2023-11-21T09:16:08;6.80;99.90
4187;DHT22;2107;52.306;10.484;2023-11-21T09:18:36;6.90;99.90
4187;DHT22;2107;52.306;10.484;2023-11-21T09:21:03;7.10;99.90
4187;DHT22;2107;52.306;10.484;2023-11-21T09:23:30;7.10;99.90
4187;DHT22;2107;52.306;10.484;2023-11-21T09:25:57;7.00;99.90
4187;DHT22;2107;52.306;10.484;2023-11-21T09:28:27;7.00;99.90
4187;DHT22;2107;52.306;10.484;2023-11-21T09:30:54;6.90;99.90
4187;DHT22;2107;52.306;10.484;2023-11-21T09:33:21;7.00;99.90
4187;DHT22;2107;52.306;10.484;2023-11-21T09:35:50;6.90;99.90
4187;DHT22;2107;52.306;10.484;2023-11-21T09:38:18;6.90;99.90
4187;DHT22;2107;52.306;10.484;2023-11-21T09:40:45;6.90;99.90
4187;DHT22;2107;52.306;10.484;2023-11-21T09:43:16;7.00;99.90
4187;DHT22;2107;52.306;10.484;2023-11-21T09:45:47;7.00;99.90
4187;DHT22;2107;52.306;10.484;2023-11-21T09:48:17;7.10;99.90
4187;DHT22;2107;52.306;10.484;2023-11-21T09:50:47;7.10;99.90
4187;DHT22;2107;52.306;10.484;2023-11-21T09:53:17;7.40;99.90
4187;DHT22;2107;52.306;10.484;2023-11-21T09:55:48;7.50;99.90
4187;DHT22;2107;52.306;10.484;2023-11-21T09:58:17;7.90;99.90
4187;DHT22;2107;52.306;10.484;2023-11-21T10:00:46;8.00;99.90
4187;DHT22;2107;52.306;10.484;2023-11-21T10:03:14;8.20;99.90
4187;DHT22;2107;52.306;10.484;2023-11-21T10:05:43;8.30;99.90
4187;DHT22;2107;52.306;10.484;2023-11-21T10:08:11;8.30;99.90
4187;DHT22;2107;52.306;10.484;2023-11-21T10:10:43;8.20;99.90
4187;DHT22;2107;52.306;10.484;2023-11-21T10:13:12;8.20;99.90
4187;DHT22;2107;52.306;10.484;2023-11-21T10:15:42;8.20;99.90
4187;DHT22;2107;52.306;10.484;2023-11-21T10:18:16;8.10;99.90
4187;DHT22;2107;52.306;10.484;2023-11-21T10:20:43;8.20;99.90
4187;DHT22;2107;52.306;10.484;2023-11-21T10:23:12;8.00;99.90
4187;DHT22;2107;52.306;10.484;2023-11-21T10:25:40;8.00;99.90
4187;DHT22;2107;52.306;10.484;2023-11-21T10:28:07;8.10;99.90
4187;DHT22;2107;52.306;10.484;2023-11-21T10:30:37;8.00;99.90
4187;DHT22;2107;52.306;10.484;2023-11-21T10:33:05;8.00;99.90
4187;DHT22;2107;52.306;10.484;2023-11-21T10:35:43;7.90;99.90
4187;DHT22;2107;52.306;10.484;2023-11-21T10:38:12;7.70;99.90
4187;DHT22;2107;52.306;10.484;2023-11-21T10:40:40;7.70;99.90
4187;DHT22;2107;52.306;10.484;2023-11-21T10:43:08;7.70;99.90
4187;DHT22;2107;52.306;10.484;2023-11-21T10:45:36;7.80;99.90
4187;DHT22;2107;52.306;10.484;2023-11-21T10:48:05;7.90;99.90
4187;DHT22;2107;52.306;10.484;2023-11-21T10:50:34;7.80;99.90
4187;DHT22;2107;52.306;10.484;2023-11-21T10:53:03;7.80;99.90
4187;DHT22;2107;52.306;10.484;2023-11-21T10:55:32;7.90;99.90
4187;DHT22;2107;52.306;10.484;2023-11-21T10:58:00;8.00;99.90
4187;DHT22;2107;52.306;10.484;2023-11-21T11:00:30;8.00;99.90
4187;DHT22;2107;52.306;10.484;2023-11-21T11:02:57;8.20;99.90
4187;DHT22;2107;52.306;10.484;2023-11-21T11:05:26;8.10;99.90
4187;DHT22;2107;52.306;10.484;2023-11-21T11:07:58;8.00;99.90
4187;DHT22;2107;52.306;10.484;2023-11-21T11:10:30;8.00;99.90
4187;DHT22;2107;52.306;10.484;2023-11-21T11:12:58;7.80;99.90
4187;DHT22;2107;52.306;10.484;2023-11-21T11:15:27;7.70;99.90
4187;DHT22;2107;52.306;10.484;2023-11-21T11:17:55;7.70;99.90
4187;DHT22;2107;52.306;10.484;2023-11-21T11:20:24;7.80;99.90
4187;DHT22;2107;52.306;10.484;2023-11-21T11:23:04;7.70;99.90
4187;DHT22;2107;52.306;10.484;2023-11-21T11:25:49;7.70;99.90
4187;DHT22;2107;52.306;10.484;2023-11-21T11:28:21;7.90;99.90
4187;DHT22;2107;52.306;10.484;2023-11-21T11:31:00;7.90;99.90
4187;DHT22;2107;52.306;10.484;2023-11-21T11:33:36;8.00;99.90
4187;DHT22;2107;52.306;10.484;2023-11-21T11:36:09;8.10;99.90
4187;DHT22;2107;52.306;10.484;2023-11-21T11:38:37;7.90;99.90
4187;DHT22;2107;52.306;10.484;2023-11-21T11:41:07;7.80;99.90
4187;DHT22;2107;52.306;10.484;2023-11-21T11:43:34;7.90;99.90
4187;DHT22;2107;52.306;10.484;2023-11-21T11:46:10;7.90;99.90
4187;DHT22;2107;52.306;10.484;2023-11-21T11:48:40;8.00;99.90
4187;DHT22;2107;52.306;10.484;2023-11-21T11:51:10;7.90;99.90
4187;DHT22;2107;52.306;10.484;2023-11-21T11:53:41;7.80;99.90
4187;DHT22;2107;52.306;10.484;2023-11-21T11:56:25;7.70;99.90
4187;DHT22;2107;52.306;10.484;2023-11-21T11:58:53;7.50;99.90
4187;DHT22;2107;52.306;10.484;2023-11-21T12:01:20;7.50;99.90
4187;DHT22;2107;52.306;10.484;2023-11-21T12:04:25;7.60;99.90
4187;DHT22;2107;52.306;10.484;2023-11-21T12:07:01;7.50;99.90
4187;DHT22;2107;52.306;10.484;2023-11-21T12:09:30;7.60;99.90
4187;DHT22;2107;52.306;10.484;2023-11-21T12:11:58;7.70;99.90
4187;DHT22;2107;52.306;10.484;2023-11-21T12:14:25;7.90;99.90
4187;DHT22;2107;52.306;10.484;2023-11-21T12:16:53;8.10;99.90
4187;DHT22;2107;52.306;10.484;2023-11-21T12:19:20;8.00;99.90
4187;DHT22;2107;52.306;10.484;2023-11-21T12:21:49;8.00;99.90
4187;DHT22;2107;52.306;10.484;2023-11-21T12:24:16;8.20;99.90
4187;DHT22;2107;52.306;10.484;2023-11-21T12:26:43;8.20;99.90
4187;DHT22;2107;52.306;10.484;2023-11-21T12:29:12;8.10;99.90
4187;DHT22;2107;52.306;10.484;2023-11-21T12:31:39;8.00;99.90
4187;DHT22;2107;52.306;10.484;2023-11-21T12:34:07;8.20;99.90
4187;DHT22;2107;52.306;10.484;2023-11-21T12:36:37;8.30;99.90
4187;DHT22;2107;52.306;10.484;2023-11-21T12:39:04;8.20;99.90
4187;DHT22;2107;52.306;10.484;2023-11-21T12:41:31;8.30;99.90
4187;DHT22;2107;52.306;10.484;2023-11-21T12:43:58;8.40;99.90
4187;DHT22;2107;52.306;10.484;2023-11-21T12:46:26;8.30;99.90
4187;DHT22;2107;52.306;10.484;2023-11-21T12:48:56;8.20;99.90
4187;DHT22;2107;52.306;10.484;2023-11-21T12:51:24;8.00;99.90
4187;DHT22;2107;52.306;10.484;2023-11-21T12:53:51;8.00;99.90
4187;DHT22;2107;52.306;10.484;2023-11-21T12:56:18;7.80;99.90
4187;DHT22;2107;52.306;10.484;2023-11-21T12:58:49;7.80;99.90
4187;DHT22;2107;52.306;10.484;2023-11-21T13:01:16;7.70;99.90
4187;DHT22;2107;52.306;10.484;2023-11-21T13:03:47;7.50;99.90
4187;DHT22;2107;52.306;10.484;2023-11-21T13:06:18;7.50;99.90
4187;DHT22;2107;52.306;10.484;2023-11-21T13:08:47;7.50;99.90
4187;DHT22;2107;52.306;10.484;2023-11-21T13:11:15;7.60;99.90
4187;DHT22;2107;52.306;10.484;2023-11-21T13:13:43;7.50;99.90
4187;DHT22;2107;52.306;10.484;2023-11-21T13:16:10;7.30;99.90
4187;DHT22;2107;52.306;10.484;2023-11-21T13:18:39;7.40;99.90
4187;DHT22;2107;52.306;10.484;2023-11-21T13:21:09;7.40;99.90
4187;DHT22;2107;52.306;10.484;2023-11-21T13:23:39;7.40;99.90
4187;DHT22;2107;52.306;10.484;2023-11-21T13:26:07;7.40;99.90
4187;DHT22;2107;52.306;10.484;2023-11-21T13:28:34;7.30;99.90
4187;DHT22;2107;52.306;10.484;2023-11-21T13:31:04;7.20;99.90
4187;DHT22;2107;52.306;10.484;2023-11-21T13:33:35;7.20;99.90
4187;DHT22;2107;52.306;10.484;2023-11-21T13:36:04;7.20;99.90
4187;DHT22;2107;52.306;10.484;2023-11-21T13:38:34;7.10;99.90
4187;DHT22;2107;52.306;10.484;2023-11-21T13:41:03;7.10;99.90
4187;DHT22;2107;52.306;10.484;2023-11-21T13:43:33;7.20;99.90
4187;DHT22;2107;52.306;10.484;2023-11-21T13:46:00;7.20;99.90
4187;DHT22;2107;52.306;10.484;2023-11-21T13:48:34;7.10;99.90
4187;DHT22;2107;52.306;10.484;2023-11-21T13:51:08;7.10;99.90
4187;DHT22;2107;52.306;10.484;2023-11-21T13:53:43;7.10;99.90
4187;DHT22;2107;52.306;10.484;2023-11-21T13:56:11;7.00;99.90
4187;DHT22;2107;52.306;10.484;2023-11-21T13:58:41;6.90;99.90
4187;DHT22;2107;52.306;10.484;2023-11-21T14:01:13;6.90;99.90
4187;DHT22;2107;52.306;10.484;2023-11-21T14:03:58;6.90;99.90
4187;DHT22;2107;52.306;10.484;2023-11-21T14:06:34;6.80;99.90
4187;DHT22;2107;52.306;10.484;2023-11-21T14:09:09;6.80;99.90
4187;DHT22;2107;52.306;10.484;2023-11-21T14:11:39;6.70;99.90
4187;DHT22;2107;52.306;10.484;2023-11-21T14:14:06;6.60;99.90
4187;DHT22;2107;52.306;10.484;2023-11-21T14:16:33;6.60;99.90
4187;DHT22;2107;52.306;10.484;2023-11-21T14:18:59;6.80;99.90
4187;DHT22;2107;52.306;10.484;2023-11-21T14:21:39;6.50;99.90
4187;DHT22;2107;52.306;10.484;2023-11-21T14:24:10;6.60;99.90
4187;DHT22;2107;52.306;10.484;2023-11-21T14:26:39;6.50;99.90
4187;DHT22;2107;52.306;10.484;2023-11-21T14:29:06;6.40;99.90
4187;DHT22;2107;52.306;10.484;2023-11-21T14:31:33;6.40;99.90
4187;DHT22;2107;52.306;10.484;2023-11-21T14:34:00;6.40;99.90
4187;DHT22;2107;52.306;10.484;2023-11-21T14:36:28;6.40;99.90
4187;DHT22;2107;52.306;10.484;2023-11-21T14:38:54;6.40;99.90
4187;DHT22;2107;52.306;10.484;2023-11-21T14:41:23;6.40;99.90
4187;DHT22;2107;52.306;10.484;2023-11-21T14:43:53;6.40;99.90
4187;DHT22;2107;52.306;10.484;2023-11-21T14:46:20;6.40;99.90
4187;DHT22;2107;52.306;10.484;2023-11-21T14:48:47;6.40;99.90
4187;DHT22;2107;52.306;10.484;2023-11-21T14:51:24;6.30;99.90
4187;DHT22;2107;52.306;10.484;2023-11-21T14:53:56;6.30;99.90
4187;DHT22;2107;52.306;10.484;2023-11-21T14:56:27;6.30;99.90
4187;DHT22;2107;52.306;10.484;2023-11-21T14:58:57;6.10;99.90
4187;DHT22;2107;52.306;10.484;2023-11-21T15:01:23;6.00;99.90
4187;DHT22;2107;52.306;10.484;2023-11-21T15:04:08;6.00;99.90
4187;DHT22;2107;52.306;10.484;2023-11-21T15:06:40;5.90;99.90
4187;DHT22;2107;52.306;10.484;2023-11-21T15:09:08;5.90;99.90
4187;DHT22;2107;52.306;10.484;2023-11-21T15:12:02;5.90;99.90
4187;DHT22;2107;52.306;10.484;2023-11-21T15:14:39;5.80;99.90
4187;DHT22;2107;52.306;10.484;2023-11-21T15:17:05;5.60;99.90
4187;DHT22;2107;52.306;10.484;2023-11-21T15:19:33;5.40;99.90
4187;DHT22;2107;52.306;10.484;2023-11-21T15:22:01;5.40;99.90
4187;DHT22;2107;52.306;10.484;2023-11-21T15:24:28;5.20;99.90
4187;DHT22;2107;52.306;10.484;2023-11-21T15:26:54;5.20;99.90
4187;DHT22;2107;52.306;10.484;2023-11-21T15:29:23;5.10;99.90
4187;DHT22;2107;52.306;10.484;2023-11-21T15:31:51;5.10;99.90
4187;DHT22;2107;52.306;10.484;2023-11-21T15:34:22;5.10;99.90
4187;DHT22;2107;52.306;10.484;2023-11-21T15:36:49;5.00;99.90
4187;DHT22;2107;52.306;10.484;2023-11-21T15:39:18;5.00;99.90
4187;DHT22;2107;52.306;10.484;2023-11-21T15:41:47;4.90;99.90
4187;DHT22;2107;52.306;10.484;2023-11-21T15:44:14;4.90;99.90
4187;DHT22;2107;52.306;10.484;2023-11-21T15:46:42;4.90;99.90
4187;DHT22;2107;52.306;10.484;2023-11-21T15:49:10;4.90;99.90
4187;DHT22;2107;52.306;10.484;2023-11-21T15:51:39;4.90;99.90
4187;DHT22;2107;52.306;10.484;2023-11-21T15:54:06;4.80;99.90
4187;DHT22;2107;52.306;10.484;2023-11-21T15:56:34;4.80;99.90
4187;DHT22;2107;52.306;10.484;2023-11-21T15:59:01;4.80;99.90
4187;DHT22;2107;52.306;10.484;2023-11-21T16:01:29;4.80;99.90
4187;DHT22;2107;52.306;10.484;2023-11-21T16:03:57;4.90;99.90
4187;DHT22;2107;52.306;10.484;2023-11-21T16:06:26;4.90;99.90
4187;DHT22;2107;52.306;10.484;2023-11-21T16:08:54;5.00;99.90
4187;DHT22;2107;52.306;10.484;2023-11-21T16:11:24;5.00;99.90
4187;DHT22;2107;52.306;10.484;2023-11-21T16:13:51;5.00;99.90
4187;DHT22;2107;52.306;10.484;2023-11-21T16:16:21;5.00;99.90
4187;DHT22;2107;52.306;10.484;2023-11-21T16:18:48;5.10;99.90
4187;DHT22;2107;52.306;10.484;2023-11-21T16:21:17;5.10;99.90
4187;DHT22;2107;52.306;10.484;2023-11-21T16:23:45;5.10;99.90
4187;DHT22;2107;52.306;10.484;2023-11-21T16:26:11;5.10;99.90
4187;DHT22;2107;52.306;10.484;2023-11-21T16:28:39;5.10;99.90
4187;DHT22;2107;52.306;10.484;2023-11-21T16:31:07;5.10;99.90
4187;DHT22;2107;52.306;10.484;2023-11-21T16:33:35;5.10;99.90
4187;DHT22;2107;52.306;10.484;2023-11-21T16:36:03;5.10;99.90
4187;DHT22;2107;52.306;10.484;2023-11-21T16:38:31;5.10;99.90
4187;DHT22;2107;52.306;10.484;2023-11-21T16:40:58;5.10;99.90
4187;DHT22;2107;52.306;10.484;2023-11-21T16:43:26;5.20;99.90
4187;DHT22;2107;52.306;10.484;2023-11-21T16:45:52;5.10;99.90
4187;DHT22;2107;52.306;10.484;2023-11-21T16:48:19;5.10;99.90
4187;DHT22;2107;52.306;10.484;2023-11-21T16:50:46;5.20;99.90
4187;DHT22;2107;52.306;10.484;2023-11-21T16:53:13;5.20;99.90
4187;DHT22;2107;52.306;10.484;2023-11-21T16:55:41;5.10;99.90
4187;DHT22;2107;52.306;10.484;2023-11-21T16:58:08;5.10;99.90
4187;DHT22;2107;52.306;10.484;2023-11-21T17:00:35;5.00;99.90
4187;DHT22;2107;52.306;10.484;2023-11-21T17:03:03;5.10;99.90
4187;DHT22;2107;52.306;10.484;2023-11-21T17:05:30;5.10;99.90
4187;DHT22;2107;52.306;10.484;2023-11-21T17:07:58;5.10;99.90
4187;DHT22;2107;52.306;10.484;2023-11-21T17:10:25;5.10;99.90
4187;DHT22;2107;52.306;10.484;2023-11-21T17:12:53;5.10;99.90
4187;DHT22;2107;52.306;10.484;2023-11-21T17:15:20;5.10;99.90
4187;DHT22;2107;52.306;10.484;2023-11-21T17:17:47;5.10;99.90
4187;DHT22;2107;52.306;10.484;2023-11-21T17:20:16;5.10;99.90
4187;DHT22;2107;52.306;10.484;2023-11-21T17:22:44;5.20;99.90
4187;DHT22;2107;52.306;10.484;2023-11-21T17:25:11;5.10;99.90
4187;DHT22;2107;52.306;10.484;2023-11-21T17:27:38;5.00;99.90
4187;DHT22;2107;52.306;10.484;2023-11-21T17:30:07;5.00;99.90
4187;DHT22;2107;52.306;10.484;2023-11-21T17:32:34;5.00;99.90
4187;DHT22;2107;52.306;10.484;2023-11-21T17:35:01;5.00;99.90
4187;DHT22;2107;52.306;10.484;2023-11-21T17:37:28;5.00;99.90
4187;DHT22;2107;52.306;10.484;2023-11-21T17:39:55;4.90;99.90
4187;DHT22;2107;52.306;10.484;2023-11-21T17:42:22;4.80;99.90
4187;DHT22;2107;52.306;10.484;2023-11-21T17:44:49;4.70;99.90
4187;DHT22;2107;52.306;10.484;2023-11-21T17:47:18;4.60;99.90
4187;DHT22;2107;52.306;10.484;2023-11-21T17:49:45;4.50;99.90
4187;DHT22;2107;52.306;10.484;2023-11-21T17:52:13;4.40;99.90
4187;DHT22;2107;52.306;10.484;2023-11-21T17:54:41;4.40;99.90
4187;DHT22;2107;52.306;10.484;2023-11-21T17:57:08;4.30;99.90
4187;DHT22;2107;52.306;10.484;2023-11-21T17:59:37;4.30;99.90
4187;DHT22;2107;52.306;10.484;2023-11-21T18:02:04;4.20;99.90
4187;DHT22;2107;52.306;10.484;2023-11-21T18:04:33;4.20;99.90
4187;DHT22;2107;52.306;10.484;2023-11-21T18:07:00;4.10;99.90
4187;DHT22;2107;52.306;10.484;2023-11-21T18:09:27;4.20;99.90
4187;DHT22;2107;52.306;10.484;2023-11-21T18:11:54;4.10;99.90